sensor_id;sensor_type;location;lat;lon;timestamp;temperature;humidity
78345;DHT22;67620;51.134;6.548;2023-02-24T00:02:23;7.00;81.80
78345;DHT22;67620;51.134;6.548;2023-02-24T00:04:49;7.00;82.00
78345;DHT22;67620;51.134;6.548;2023-02-24T00:07:16;7.00;81.20
78345;DHT22;67620;51.134;6.548;2023-02-24T00:09:42;7.00;81.70
78345;DHT22;67620;51.134;6.548;2023-02-24T00:12:14;7.00;81.90
78345;DHT22;67620;51.134;6.548;2023-02-24T00:14:43;7.00;81.40
78345;DHT22;67620;51.134;6.548;2023-02-24T00:17:09;7.00;80.90
78345;DHT22;67620;51.134;6.548;2023-02-24T00:19:36;7.00;80.80
78345;DHT22;67620;51.134;6.548;2023-02-24T00:22:04;6.90;80.50
78345;DHT22;67620;51.134;6.548;2023-02-24T00:24:30;6.90;80.50
78345;DHT22;67620;51.134;6.548;2023-02-24T00:26:57;6.90;80.60
78345;DHT22;67620;51.134;6.548;2023-02-24T00:29:24;6.90;81.10
78345;DHT22;67620;51.134;6.548;2023-02-24T00:31:53;6.90;80.70
78345;DHT22;67620;51.134;6.548;2023-02-24T00:34:29;6.90;80.70
78345;DHT22;67620;51.134;6.548;2023-02-24T00:36:55;6.80;80.40
78345;DHT22;67620;51.134;6.548;2023-02-24T00:39:21;6.90;80.90
78345;DHT22;67620;51.134;6.548;2023-02-24T00:41:52;6.90;80.60
78345;DHT22;67620;51.134;6.548;2023-02-24T00:44:22;6.80;81.00
78345;DHT22;67620;51.134;6.548;2023-02-24T00:46:48;6.80;81.10
78345;DHT22;67620;51.134;6.548;2023-02-24T00:49:16;6.80;80.80
78345;DHT22;67620;51.134;6.548;2023-02-24T00:51:44;6.80;80.90
78345;DHT22;67620;51.134;6.548;2023-02-24T00:54:10;6.90;80.80
78345;DHT22;67620;51.134;6.548;2023-02-24T00:56:40;6.80;80.90
78345;DHT22;67620;51.134;6.548;2023-02-24T00:59:08;6.80;80.70
78345;DHT22;67620;51.134;6.548;2023-02-24T01:01:34;6.80;80.60
78345;DHT22;67620;51.134;6.548;2023-02-24T01:04:01;6.80;80.70
78345;DHT22;67620;51.134;6.548;2023-02-24T01:06:31;6.80;80.70
78345;DHT22;67620;51.134;6.548;2023-02-24T01:08:57;6.80;80.80
78345;DHT22;67620;51.134;6.548;2023-02-24T01:11:26;6.80;80.30
78345;DHT22;67620;51.134;6.548;2023-02-24T01:14:15;6.80;80.40
78345;DHT22;67620;51.134;6.548;2023-02-24T01:16:41;6.70;80.20
78345;DHT22;67620;51.134;6.548;2023-02-24T01:19:09;6.70;80.90
78345;DHT22;67620;51.134;6.548;2023-02-24T01:21:35;6.60;80.60
78345;DHT22;67620;51.134;6.548;2023-02-24T01:24:01;6.70;80.30
78345;DHT22;67620;51.134;6.548;2023-02-24T01:26:27;6.70;80.20
78345;DHT22;67620;51.134;6.548;2023-02-24T01:28:53;6.60;80.40
78345;DHT22;67620;51.134;6.548;2023-02-24T01:31:20;6.60;80.00
78345;DHT22;67620;51.134;6.548;2023-02-24T01:33:46;6.60;80.10
78345;DHT22;67620;51.134;6.548;2023-02-24T01:36:15;6.60;79.90
78345;DHT22;67620;51.134;6.548;2023-02-24T01:38:41;6.60;79.80
78345;DHT22;67620;51.134;6.548;2023-02-24T01:41:09;6.50;79.80
78345;DHT22;67620;51.134;6.548;2023-02-24T01:43:55;6.50;79.80
78345;DHT22;67620;51.134;6.548;2023-02-24T01:46:26;6.50;79.80
78345;DHT22;67620;51.134;6.548;2023-02-24T01:48:54;6.40;78.70
78345;DHT22;67620;51.134;6.548;2023-02-24T01:51:20;6.40;79.00
78345;DHT22;67620;51.134;6.548;2023-02-24T01:53:46;6.40;79.50
78345;DHT22;67620;51.134;6.548;2023-02-24T01:56:12;6.40;78.80
78345;DHT22;67620;51.134;6.548;2023-02-24T01:58:38;6.40;79.10
78345;DHT22;67620;51.134;6.548;2023-02-24T02:01:05;6.50;79.00
78345;DHT22;67620;51.134;6.548;2023-02-24T02:03:38;6.40;78.00
78345;DHT22;67620;51.134;6.548;2023-02-24T02:06:08;6.40;78.50
78345;DHT22;67620;51.134;6.548;2023-02-24T02:08:38;6.30;78.90
78345;DHT22;67620;51.134;6.548;2023-02-24T02:11:10;6.40;78.70
78345;DHT22;67620;51.134;6.548;2023-02-24T02:13:38;6.40;78.50
78345;DHT22;67620;51.134;6.548;2023-02-24T02:35:41;6.10;79.60
78345;DHT22;67620;51.134;6.548;2023-02-24T02:38:18;6.10;79.40
78345;DHT22;67620;51.134;6.548;2023-02-24T02:41:21;6.10;78.90
78345;DHT22;67620;51.134;6.548;2023-02-24T02:44:08;6.10;79.20
78345;DHT22;67620;51.134;6.548;2023-02-24T02:46:43;6.10;79.20
78345;DHT22;67620;51.134;6.548;2023-02-24T02:49:18;6.10;79.00
78345;DHT22;67620;51.134;6.548;2023-02-24T02:51:51;6.10;79.00
78345;DHT22;67620;51.134;6.548;2023-02-24T02:54:27;6.20;78.80
78345;DHT22;67620;51.134;6.548;2023-02-24T02:57:05;6.20;79.20
78345;DHT22;67620;51.134;6.548;2023-02-24T02:59:36;6.00;78.70
78345;DHT22;67620;51.134;6.548;2023-02-24T03:02:03;6.10;78.30
78345;DHT22;67620;51.134;6.548;2023-02-24T03:04:59;6.10;78.20
78345;DHT22;67620;51.134;6.548;2023-02-24T03:07:32;6.10;78.30
78345;DHT22;67620;51.134;6.548;2023-02-24T03:10:00;6.10;78.40
78345;DHT22;67620;51.134;6.548;2023-02-24T03:12:30;6.10;78.30
78345;DHT22;67620;51.134;6.548;2023-02-24T03:15:00;6.00;78.80
78345;DHT22;67620;51.134;6.548;2023-02-24T03:17:31;5.90;78.50
78345;DHT22;67620;51.134;6.548;2023-02-24T03:20:09;6.00;78.70
78345;DHT22;67620;51.134;6.548;2023-02-24T03:22:53;6.00;78.40
78345;DHT22;67620;51.134;6.548;2023-02-24T03:25:24;6.00;77.90
78345;DHT22;67620;51.134;6.548;2023-02-24T03:27:58;6.00;77.90
78345;DHT22;67620;51.134;6.548;2023-02-24T03:30:47;5.90;77.90
78345;DHT22;67620;51.134;6.548;2023-02-24T03:33:54;5.90;77.70
78345;DHT22;67620;51.134;6.548;2023-02-24T03:36:25;5.90;77.60
78345;DHT22;67620;51.134;6.548;2023-02-24T03:38:51;5.90;77.20
78345;DHT22;67620;51.134;6.548;2023-02-24T03:41:17;5.90;77.60
78345;DHT22;67620;51.134;6.548;2023-02-24T03:43:45;5.80;77.70
78345;DHT22;67620;51.134;6.548;2023-02-24T03:46:12;5.90;77.80
78345;DHT22;67620;51.134;6.548;2023-02-24T03:48:44;5.80;77.70
78345;DHT22;67620;51.134;6.548;2023-02-24T03:51:20;5.90;77.50
78345;DHT22;67620;51.134;6.548;2023-02-24T03:54:00;5.90;77.50
78345;DHT22;67620;51.134;6.548;2023-02-24T03:59:49;5.90;76.90
78345;DHT22;67620;51.134;6.548;2023-02-24T04:02:28;5.80;77.00
78345;DHT22;67620;51.134;6.548;2023-02-24T04:05:09;5.80;77.40
78345;DHT22;67620;51.134;6.548;2023-02-24T04:07:46;5.80;76.90
78345;DHT22;67620;51.134;6.548;2023-02-24T04:10:38;5.80;76.90
78345;DHT22;67620;51.134;6.548;2023-02-24T04:13:31;5.80;77.10
78345;DHT22;67620;51.134;6.548;2023-02-24T04:16:13;5.80;76.60
78345;DHT22;67620;51.134;6.548;2023-02-24T04:18:46;5.80;76.00
78345;DHT22;67620;51.134;6.548;2023-02-24T04:21:12;5.80;75.60
78345;DHT22;67620;51.134;6.548;2023-02-24T04:23:41;5.80;75.70
78345;DHT22;67620;51.134;6.548;2023-02-24T04:26:09;5.70;75.90
78345;DHT22;67620;51.134;6.548;2023-02-24T04:28:37;5.70;76.10
78345;DHT22;67620;51.134;6.548;2023-02-24T04:31:08;5.70;76.40
78345;DHT22;67620;51.134;6.548;2023-02-24T04:33:35;5.70;76.50
78345;DHT22;67620;51.134;6.548;2023-02-24T04:36:03;5.70;76.60
78345;DHT22;67620;51.134;6.548;2023-02-24T04:38:29;5.60;77.00
78345;DHT22;67620;51.134;6.548;2023-02-24T04:40:55;5.70;76.70
78345;DHT22;67620;51.134;6.548;2023-02-24T04:43:21;5.70;76.70
78345;DHT22;67620;51.134;6.548;2023-02-24T04:45:47;5.70;76.60
78345;DHT22;67620;51.134;6.548;2023-02-24T04:48:15;5.60;77.10
78345;DHT22;67620;51.134;6.548;2023-02-24T04:50:42;5.50;77.40
78345;DHT22;67620;51.134;6.548;2023-02-24T04:53:13;5.50;77.40
78345;DHT22;67620;51.134;6.548;2023-02-24T04:55:42;5.50;77.90
78345;DHT22;67620;51.134;6.548;2023-02-24T04:58:12;5.40;77.90
78345;DHT22;67620;51.134;6.548;2023-02-24T05:00:39;5.40;78.00
78345;DHT22;67620;51.134;6.548;2023-02-24T05:03:09;5.40;78.10
78345;DHT22;67620;51.134;6.548;2023-02-24T05:05:35;5.30;78.30
78345;DHT22;67620;51.134;6.548;2023-02-24T05:08:06;5.40;78.10
78345;DHT22;67620;51.134;6.548;2023-02-24T05:10:40;5.40;78.40
78345;DHT22;67620;51.134;6.548;2023-02-24T05:13:07;5.40;78.50
78345;DHT22;67620;51.134;6.548;2023-02-24T05:15:34;5.30;78.90
78345;DHT22;67620;51.134;6.548;2023-02-24T05:18:04;5.30;78.70
78345;DHT22;67620;51.134;6.548;2023-02-24T05:20:41;5.20;79.30
78345;DHT22;67620;51.134;6.548;2023-02-24T05:23:27;5.30;79.10
78345;DHT22;67620;51.134;6.548;2023-02-24T05:25:56;5.20;79.10
78345;DHT22;67620;51.134;6.548;2023-02-24T05:28:23;5.30;79.30
78345;DHT22;67620;51.134;6.548;2023-02-24T05:30:49;5.30;78.90
78345;DHT22;67620;51.134;6.548;2023-02-24T05:33:16;5.20;79.60
78345;DHT22;67620;51.134;6.548;2023-02-24T05:35:48;5.20;79.90
78345;DHT22;67620;51.134;6.548;2023-02-24T05:38:17;5.20;80.10
78345;DHT22;67620;51.134;6.548;2023-02-24T05:40:46;5.10;80.70
78345;DHT22;67620;51.134;6.548;2023-02-24T05:43:13;5.40;79.50
78345;DHT22;67620;51.134;6.548;2023-02-24T05:45:46;5.50;78.90
78345;DHT22;67620;51.134;6.548;2023-02-24T05:48:12;5.60;78.50
78345;DHT22;67620;51.134;6.548;2023-02-24T05:50:41;5.60;78.10
78345;DHT22;67620;51.134;6.548;2023-02-24T05:53:11;5.50;78.20
78345;DHT22;67620;51.134;6.548;2023-02-24T05:55:36;5.50;78.20
78345;DHT22;67620;51.134;6.548;2023-02-24T05:58:02;5.50;78.40
78345;DHT22;67620;51.134;6.548;2023-02-24T06:00:32;5.50;78.60
78345;DHT22;67620;51.134;6.548;2023-02-24T06:02:57;5.50;78.10
78345;DHT22;67620;51.134;6.548;2023-02-24T06:05:32;5.50;78.30
78345;DHT22;67620;51.134;6.548;2023-02-24T06:07:58;5.50;78.70
78345;DHT22;67620;51.134;6.548;2023-02-24T06:10:31;5.50;78.30
78345;DHT22;67620;51.134;6.548;2023-02-24T06:12:58;5.60;78.20
78345;DHT22;67620;51.134;6.548;2023-02-24T06:15:26;5.50;78.30
78345;DHT22;67620;51.134;6.548;2023-02-24T06:17:51;5.50;78.20
78345;DHT22;67620;51.134;6.548;2023-02-24T06:20:23;5.50;78.50
78345;DHT22;67620;51.134;6.548;2023-02-24T06:22:58;5.50;78.30
78345;DHT22;67620;51.134;6.548;2023-02-24T06:25:24;5.40;79.00
78345;DHT22;67620;51.134;6.548;2023-02-24T06:27:54;5.40;79.20
78345;DHT22;67620;51.134;6.548;2023-02-24T06:30:23;5.40;79.40
78345;DHT22;67620;51.134;6.548;2023-02-24T06:32:50;5.40;79.10
78345;DHT22;67620;51.134;6.548;2023-02-24T06:35:16;5.40;78.80
78345;DHT22;67620;51.134;6.548;2023-02-24T06:37:42;5.40;78.70
78345;DHT22;67620;51.134;6.548;2023-02-24T06:40:08;5.40;78.50
78345;DHT22;67620;51.134;6.548;2023-02-24T06:42:44;5.40;78.70
78345;DHT22;67620;51.134;6.548;2023-02-24T06:45:11;5.40;78.50
78345;DHT22;67620;51.134;6.548;2023-02-24T06:47:36;5.50;78.50
78345;DHT22;67620;51.134;6.548;2023-02-24T06:50:03;5.40;78.60
78345;DHT22;67620;51.134;6.548;2023-02-24T06:52:31;5.40;78.80
78345;DHT22;67620;51.134;6.548;2023-02-24T06:54:57;5.40;79.60
78345;DHT22;67620;51.134;6.548;2023-02-24T06:57:23;5.40;79.60
78345;DHT22;67620;51.134;6.548;2023-02-24T06:59:49;5.40;79.50
78345;DHT22;67620;51.134;6.548;2023-02-24T07:02:15;5.30;79.70
78345;DHT22;67620;51.134;6.548;2023-02-24T07:04:42;5.30;79.90
78345;DHT22;67620;51.134;6.548;2023-02-24T07:07:11;5.30;79.90
78345;DHT22;67620;51.134;6.548;2023-02-24T07:09:38;5.30;80.30
78345;DHT22;67620;51.134;6.548;2023-02-24T07:12:06;5.40;80.50
78345;DHT22;67620;51.134;6.548;2023-02-24T07:14:32;5.30;81.10
78345;DHT22;67620;51.134;6.548;2023-02-24T07:17:01;5.30;80.80
78345;DHT22;67620;51.134;6.548;2023-02-24T07:19:29;5.20;81.40
78345;DHT22;67620;51.134;6.548;2023-02-24T07:22:01;5.20;81.50
78345;DHT22;67620;51.134;6.548;2023-02-24T07:24:30;5.20;81.60
78345;DHT22;67620;51.134;6.548;2023-02-24T07:27:05;5.20;81.70
78345;DHT22;67620;51.134;6.548;2023-02-24T07:29:32;5.20;81.90
78345;DHT22;67620;51.134;6.548;2023-02-24T07:32:00;5.20;81.80
78345;DHT22;67620;51.134;6.548;2023-02-24T07:34:27;5.20;82.10
78345;DHT22;67620;51.134;6.548;2023-02-24T07:36:54;5.20;82.00
78345;DHT22;67620;51.134;6.548;2023-02-24T07:39:21;5.20;81.90
78345;DHT22;67620;51.134;6.548;2023-02-24T07:41:49;5.20;81.60
78345;DHT22;67620;51.134;6.548;2023-02-24T07:44:18;5.20;81.70
78345;DHT22;67620;51.134;6.548;2023-02-24T07:46:44;5.10;81.30
78345;DHT22;67620;51.134;6.548;2023-02-24T07:49:12;5.20;80.70
78345;DHT22;67620;51.134;6.548;2023-02-24T07:51:39;5.20;79.80
78345;DHT22;67620;51.134;6.548;2023-02-24T07:54:05;5.10;78.80
78345;DHT22;67620;51.134;6.548;2023-02-24T07:56:33;5.10;79.60
78345;DHT22;67620;51.134;6.548;2023-02-24T07:59:02;5.20;79.90
78345;DHT22;67620;51.134;6.548;2023-02-24T08:01:33;5.20;79.30
78345;DHT22;67620;51.134;6.548;2023-02-24T08:04:05;5.10;78.20
78345;DHT22;67620;51.134;6.548;2023-02-24T08:06:38;5.20;79.30
78345;DHT22;67620;51.134;6.548;2023-02-24T08:09:10;5.20;78.60
78345;DHT22;67620;51.134;6.548;2023-02-24T08:11:53;5.20;77.40
78345;DHT22;67620;51.134;6.548;2023-02-24T08:14:23;5.20;77.20
78345;DHT22;67620;51.134;6.548;2023-02-24T08:16:54;5.20;77.20
78345;DHT22;67620;51.134;6.548;2023-02-24T08:19:27;5.20;77.10
78345;DHT22;67620;51.134;6.548;2023-02-24T08:21:59;5.20;75.30
78345;DHT22;67620;51.134;6.548;2023-02-24T08:24:50;5.10;75.10
78345;DHT22;67620;51.134;6.548;2023-02-24T08:27:21;5.10;74.30
78345;DHT22;67620;51.134;6.548;2023-02-24T08:29:52;5.10;75.90
78345;DHT22;67620;51.134;6.548;2023-02-24T08:34:58;5.20;75.30
78345;DHT22;67620;51.134;6.548;2023-02-24T08:37:28;5.20;75.20
78345;DHT22;67620;51.134;6.548;2023-02-24T08:39:58;5.30;74.10
78345;DHT22;67620;51.134;6.548;2023-02-24T08:42:24;5.30;75.10
78345;DHT22;67620;51.134;6.548;2023-02-24T08:44:59;5.30;75.10
78345;DHT22;67620;51.134;6.548;2023-02-24T08:47:26;5.30;74.60
78345;DHT22;67620;51.134;6.548;2023-02-24T08:49:56;5.20;73.00
78345;DHT22;67620;51.134;6.548;2023-02-24T08:52:25;5.20;73.40
78345;DHT22;67620;51.134;6.548;2023-02-24T08:54:52;5.30;74.20
78345;DHT22;67620;51.134;6.548;2023-02-24T08:57:26;5.40;72.60
78345;DHT22;67620;51.134;6.548;2023-02-24T08:59:52;5.70;72.40
78345;DHT22;67620;51.134;6.548;2023-02-24T09:02:23;5.70;71.20
78345;DHT22;67620;51.134;6.548;2023-02-24T09:04:59;5.60;72.10
78345;DHT22;67620;51.134;6.548;2023-02-24T09:07:29;5.60;70.80
78345;DHT22;67620;51.134;6.548;2023-02-24T09:10:00;5.50;71.20
78345;DHT22;67620;51.134;6.548;2023-02-24T09:12:27;5.50;71.80
78345;DHT22;67620;51.134;6.548;2023-02-24T09:15:00;5.50;73.40
78345;DHT22;67620;51.134;6.548;2023-02-24T09:17:29;5.60;71.20
78345;DHT22;67620;51.134;6.548;2023-02-24T09:20:24;5.60;71.70
78345;DHT22;67620;51.134;6.548;2023-02-24T09:23:11;5.50;72.20
78345;DHT22;67620;51.134;6.548;2023-02-24T09:25:45;5.70;72.10
78345;DHT22;67620;51.134;6.548;2023-02-24T09:28:19;5.80;71.10
78345;DHT22;67620;51.134;6.548;2023-02-24T09:33:20;5.60;71.20
78345;DHT22;67620;51.134;6.548;2023-02-24T09:35:52;5.60;70.10
78345;DHT22;67620;51.134;6.548;2023-02-24T09:38:20;5.60;69.50
78345;DHT22;67620;51.134;6.548;2023-02-24T09:41:01;5.60;70.30
78345;DHT22;67620;51.134;6.548;2023-02-24T09:43:34;5.60;70.40
78345;DHT22;67620;51.134;6.548;2023-02-24T09:46:10;5.50;70.30
78345;DHT22;67620;51.134;6.548;2023-02-24T09:48:54;5.60;70.10
78345;DHT22;67620;51.134;6.548;2023-02-24T09:51:30;5.50;70.30
78345;DHT22;67620;51.134;6.548;2023-02-24T09:54:17;5.50;70.40
78345;DHT22;67620;51.134;6.548;2023-02-24T09:57:01;5.50;70.50
78345;DHT22;67620;51.134;6.548;2023-02-24T09:59:47;5.50;69.80
78345;DHT22;67620;51.134;6.548;2023-02-24T10:02:46;5.50;70.30
78345;DHT22;67620;51.134;6.548;2023-02-24T10:05:34;5.50;69.90
78345;DHT22;67620;51.134;6.548;2023-02-24T10:08:19;5.50;70.90
78345;DHT22;67620;51.134;6.548;2023-02-24T10:10:50;5.40;70.40
78345;DHT22;67620;51.134;6.548;2023-02-24T10:13:31;5.50;71.50
78345;DHT22;67620;51.134;6.548;2023-02-24T10:16:01;5.40;70.20
78345;DHT22;67620;51.134;6.548;2023-02-24T10:18:51;5.40;69.50
78345;DHT22;67620;51.134;6.548;2023-02-24T10:21:33;5.40;69.10
78345;DHT22;67620;51.134;6.548;2023-02-24T10:24:28;5.40;69.50
78345;DHT22;67620;51.134;6.548;2023-02-24T10:27:18;5.40;70.50
78345;DHT22;67620;51.134;6.548;2023-02-24T10:32:37;5.40;69.80
78345;DHT22;67620;51.134;6.548;2023-02-24T10:35:12;5.40;70.50
78345;DHT22;67620;51.134;6.548;2023-02-24T10:37:38;5.30;69.50
78345;DHT22;67620;51.134;6.548;2023-02-24T10:40:05;5.30;70.90
78345;DHT22;67620;51.134;6.548;2023-02-24T10:42:35;5.30;70.70
78345;DHT22;67620;51.134;6.548;2023-02-24T10:45:14;5.30;70.70
78345;DHT22;67620;51.134;6.548;2023-02-24T10:47:50;5.30;70.00
78345;DHT22;67620;51.134;6.548;2023-02-24T10:50:24;5.40;70.70
78345;DHT22;67620;51.134;6.548;2023-02-24T10:52:53;5.40;71.30
78345;DHT22;67620;51.134;6.548;2023-02-24T10:55:32;5.40;70.20
78345;DHT22;67620;51.134;6.548;2023-02-24T10:58:22;5.40;72.30
78345;DHT22;67620;51.134;6.548;2023-02-24T11:01:22;5.30;71.60
78345;DHT22;67620;51.134;6.548;2023-02-24T11:04:14;5.20;71.40
78345;DHT22;67620;51.134;6.548;2023-02-24T11:07:11;5.30;72.40
78345;DHT22;67620;51.134;6.548;2023-02-24T11:09:48;5.30;72.40
78345;DHT22;67620;51.134;6.548;2023-02-24T11:12:24;5.30;71.70
78345;DHT22;67620;51.134;6.548;2023-02-24T11:15:27;5.30;73.70
78345;DHT22;67620;51.134;6.548;2023-02-24T11:18:20;5.20;74.40
78345;DHT22;67620;51.134;6.548;2023-02-24T11:20:50;5.20;74.20
78345;DHT22;67620;51.134;6.548;2023-02-24T11:23:32;5.20;74.60
78345;DHT22;67620;51.134;6.548;2023-02-24T11:26:02;5.20;74.30
78345;DHT22;67620;51.134;6.548;2023-02-24T11:31:43;5.20;75.90
78345;DHT22;67620;51.134;6.548;2023-02-24T11:34:43;5.10;76.20
78345;DHT22;67620;51.134;6.548;2023-02-24T11:37:29;5.00;76.20
78345;DHT22;67620;51.134;6.548;2023-02-24T11:40:17;5.10;76.40
78345;DHT22;67620;51.134;6.548;2023-02-24T11:42:49;5.00;77.00
78345;DHT22;67620;51.134;6.548;2023-02-24T11:50:48;5.00;77.60
78345;DHT22;67620;51.134;6.548;2023-02-24T11:53:36;4.90;76.60
78345;DHT22;67620;51.134;6.548;2023-02-24T11:56:07;4.90;77.70
78345;DHT22;67620;51.134;6.548;2023-02-24T12:01:28;5.00;78.60
78345;DHT22;67620;51.134;6.548;2023-02-24T12:04:27;4.90;78.90
78345;DHT22;67620;51.134;6.548;2023-02-24T12:06:56;4.90;78.60
78345;DHT22;67620;51.134;6.548;2023-02-24T12:09:29;4.90;78.60
78345;DHT22;67620;51.134;6.548;2023-02-24T12:15:18;4.90;78.80
78345;DHT22;67620;51.134;6.548;2023-02-24T12:22:59;4.90;80.10
78345;DHT22;67620;51.134;6.548;2023-02-24T12:25:31;4.90;79.90
78345;DHT22;67620;51.134;6.548;2023-02-24T12:28:11;4.90;79.50
78345;DHT22;67620;51.134;6.548;2023-02-24T12:31:25;5.00;81.10
78345;DHT22;67620;51.134;6.548;2023-02-24T12:33:53;4.90;80.80
78345;DHT22;67620;51.134;6.548;2023-02-24T12:36:55;5.00;80.90
78345;DHT22;67620;51.134;6.548;2023-02-24T12:39:39;5.00;81.30
78345;DHT22;67620;51.134;6.548;2023-02-24T12:45:00;5.00;81.40
78345;DHT22;67620;51.134;6.548;2023-02-24T12:47:55;5.10;80.90
78345;DHT22;67620;51.134;6.548;2023-02-24T12:50:36;5.00;81.20
78345;DHT22;67620;51.134;6.548;2023-02-24T12:53:22;5.00;81.60
78345;DHT22;67620;51.134;6.548;2023-02-24T12:58:47;5.00;81.20
78345;DHT22;67620;51.134;6.548;2023-02-24T13:06:36;5.00;82.10
78345;DHT22;67620;51.134;6.548;2023-02-24T13:11:57;5.00;81.40
78345;DHT22;67620;51.134;6.548;2023-02-24T13:14:34;5.00;81.50
78345;DHT22;67620;51.134;6.548;2023-02-24T13:17:15;5.00;81.70
78345;DHT22;67620;51.134;6.548;2023-02-24T13:19:43;5.00;81.50
78345;DHT22;67620;51.134;6.548;2023-02-24T13:24:43;4.90;81.90
78345;DHT22;67620;51.134;6.548;2023-02-24T13:27:25;5.00;82.50
78345;DHT22;67620;51.134;6.548;2023-02-24T13:29:53;5.00;82.90
78345;DHT22;67620;51.134;6.548;2023-02-24T13:32:34;5.00;82.90
78345;DHT22;67620;51.134;6.548;2023-02-24T13:37:41;5.00;82.40
78345;DHT22;67620;51.134;6.548;2023-02-24T13:43:02;5.00;82.40
78345;DHT22;67620;51.134;6.548;2023-02-24T13:45:37;5.00;82.20
78345;DHT22;67620;51.134;6.548;2023-02-24T13:48:37;4.90;82.40
78345;DHT22;67620;51.134;6.548;2023-02-24T13:56:41;5.00;82.00
78345;DHT22;67620;51.134;6.548;2023-02-24T13:59:11;5.00;82.90
78345;DHT22;67620;51.134;6.548;2023-02-24T14:01:55;5.00;82.60
78345;DHT22;67620;51.134;6.548;2023-02-24T14:04:27;5.00;82.60
78345;DHT22;67620;51.134;6.548;2023-02-24T14:06:58;5.00;83.30
78345;DHT22;67620;51.134;6.548;2023-02-24T14:09:30;5.00;83.40
78345;DHT22;67620;51.134;6.548;2023-02-24T14:12:03;5.00;83.60
78345;DHT22;67620;51.134;6.548;2023-02-24T14:14:30;5.00;83.60
78345;DHT22;67620;51.134;6.548;2023-02-24T14:16:56;5.00;83.10
78345;DHT22;67620;51.134;6.548;2023-02-24T14:19:23;5.00;83.30
78345;DHT22;67620;51.134;6.548;2023-02-24T14:21:53;5.00;84.20
78345;DHT22;67620;51.134;6.548;2023-02-24T14:24:19;5.00;84.10
78345;DHT22;67620;51.134;6.548;2023-02-24T14:26:49;5.00;84.40
78345;DHT22;67620;51.134;6.548;2023-02-24T14:29:21;5.00;84.20
78345;DHT22;67620;51.134;6.548;2023-02-24T14:31:49;5.10;84.60
78345;DHT22;67620;51.134;6.548;2023-02-24T14:34:19;5.10;85.20
78345;DHT22;67620;51.134;6.548;2023-02-24T14:36:45;5.20;84.50
78345;DHT22;67620;51.134;6.548;2023-02-24T14:41:40;5.10;84.40
78345;DHT22;67620;51.134;6.548;2023-02-24T14:44:22;5.10;84.30
78345;DHT22;67620;51.134;6.548;2023-02-24T14:46:54;5.10;84.20
78345;DHT22;67620;51.134;6.548;2023-02-24T14:49:29;5.10;84.20
78345;DHT22;67620;51.134;6.548;2023-02-24T14:52:07;5.10;84.10
78345;DHT22;67620;51.134;6.548;2023-02-24T14:57:22;5.10;84.30
78345;DHT22;67620;51.134;6.548;2023-02-24T14:59:52;5.10;84.60
78345;DHT22;67620;51.134;6.548;2023-02-24T15:02:25;5.10;84.50
78345;DHT22;67620;51.134;6.548;2023-02-24T15:04:54;5.10;84.40
78345;DHT22;67620;51.134;6.548;2023-02-24T15:07:24;5.10;85.30
78345;DHT22;67620;51.134;6.548;2023-02-24T15:09:51;5.10;85.40
78345;DHT22;67620;51.134;6.548;2023-02-24T15:12:19;5.10;86.00
78345;DHT22;67620;51.134;6.548;2023-02-24T15:14:50;5.10;86.70
78345;DHT22;67620;51.134;6.548;2023-02-24T15:17:20;5.10;86.40
78345;DHT22;67620;51.134;6.548;2023-02-24T15:19:47;5.10;86.60
78345;DHT22;67620;51.134;6.548;2023-02-24T15:22:22;5.00;86.60
78345;DHT22;67620;51.134;6.548;2023-02-24T15:24:50;5.10;86.90
78345;DHT22;67620;51.134;6.548;2023-02-24T15:29:42;5.10;86.70
78345;DHT22;67620;51.134;6.548;2023-02-24T15:32:17;5.10;86.60
78345;DHT22;67620;51.134;6.548;2023-02-24T15:34:45;5.10;86.80
78345;DHT22;67620;51.134;6.548;2023-02-24T15:37:24;5.10;86.40
78345;DHT22;67620;51.134;6.548;2023-02-24T15:40:00;5.10;86.70
78345;DHT22;67620;51.134;6.548;2023-02-24T15:42:30;5.10;86.90
78345;DHT22;67620;51.134;6.548;2023-02-24T15:45:05;5.10;86.40
78345;DHT22;67620;51.134;6.548;2023-02-24T15:47:43;5.10;86.00
78345;DHT22;67620;51.134;6.548;2023-02-24T15:50:10;5.10;86.30
78345;DHT22;67620;51.134;6.548;2023-02-24T15:52:36;5.20;86.50
78345;DHT22;67620;51.134;6.548;2023-02-24T15:55:03;5.20;86.40
78345;DHT22;67620;51.134;6.548;2023-02-24T15:57:30;5.20;86.50
78345;DHT22;67620;51.134;6.548;2023-02-24T15:59:56;5.20;86.50
78345;DHT22;67620;51.134;6.548;2023-02-24T16:02:23;5.20;86.30
78345;DHT22;67620;51.134;6.548;2023-02-24T16:04:49;5.20;86.80
78345;DHT22;67620;51.134;6.548;2023-02-24T16:07:24;5.20;86.60
78345;DHT22;67620;51.134;6.548;2023-02-24T16:09:54;5.30;86.60
78345;DHT22;67620;51.134;6.548;2023-02-24T16:12:25;5.30;86.50
78345;DHT22;67620;51.134;6.548;2023-02-24T16:14:54;5.20;86.70
78345;DHT22;67620;51.134;6.548;2023-02-24T16:17:33;5.20;86.80
78345;DHT22;67620;51.134;6.548;2023-02-24T16:19:59;5.30;86.80
78345;DHT22;67620;51.134;6.548;2023-02-24T16:22:26;5.30;86.90
78345;DHT22;67620;51.134;6.548;2023-02-24T16:24:51;5.30;87.10
78345;DHT22;67620;51.134;6.548;2023-02-24T16:27:19;5.30;87.20
78345;DHT22;67620;51.134;6.548;2023-02-24T16:29:45;5.30;87.20
78345;DHT22;67620;51.134;6.548;2023-02-24T16:32:12;5.30;87.40
78345;DHT22;67620;51.134;6.548;2023-02-24T16:34:37;5.30;87.30
78345;DHT22;67620;51.134;6.548;2023-02-24T16:37:03;5.30;87.50
78345;DHT22;67620;51.134;6.548;2023-02-24T16:39:33;5.30;87.30
78345;DHT22;67620;51.134;6.548;2023-02-24T16:41:59;5.40;87.60
78345;DHT22;67620;51.134;6.548;2023-02-24T16:44:30;5.40;87.40
78345;DHT22;67620;51.134;6.548;2023-02-24T16:46:56;5.40;87.60
78345;DHT22;67620;51.134;6.548;2023-02-24T16:49:21;5.40;87.70
78345;DHT22;67620;51.134;6.548;2023-02-24T16:51:47;5.40;87.60
78345;DHT22;67620;51.134;6.548;2023-02-24T16:54:12;5.40;87.80
78345;DHT22;67620;51.134;6.548;2023-02-24T16:56:38;5.40;87.60
78345;DHT22;67620;51.134;6.548;2023-02-24T16:59:03;5.40;87.30
78345;DHT22;67620;51.134;6.548;2023-02-24T17:01:29;5.40;87.30
78345;DHT22;67620;51.134;6.548;2023-02-24T17:03:55;5.40;87.30
78345;DHT22;67620;51.134;6.548;2023-02-24T17:06:20;5.40;87.20
78345;DHT22;67620;51.134;6.548;2023-02-24T17:08:47;5.50;87.30
78345;DHT22;67620;51.134;6.548;2023-02-24T17:11:15;5.50;87.30
78345;DHT22;67620;51.134;6.548;2023-02-24T17:13:41;5.50;87.20
78345;DHT22;67620;51.134;6.548;2023-02-24T17:16:07;5.50;87.20
78345;DHT22;67620;51.134;6.548;2023-02-24T17:18:32;5.50;87.20
78345;DHT22;67620;51.134;6.548;2023-02-24T17:20:58;5.50;87.10
78345;DHT22;67620;51.134;6.548;2023-02-24T17:23:23;5.50;87.20
78345;DHT22;67620;51.134;6.548;2023-02-24T17:25:52;5.50;87.50
78345;DHT22;67620;51.134;6.548;2023-02-24T17:28:19;5.50;87.30
78345;DHT22;67620;51.134;6.548;2023-02-24T17:30:44;5.50;86.90
78345;DHT22;67620;51.134;6.548;2023-02-24T17:33:11;5.50;86.60
78345;DHT22;67620;51.134;6.548;2023-02-24T17:35:41;5.50;86.50
78345;DHT22;67620;51.134;6.548;2023-02-24T17:38:11;5.50;86.50
78345;DHT22;67620;51.134;6.548;2023-02-24T17:40:38;5.50;86.40
78345;DHT22;67620;51.134;6.548;2023-02-24T17:43:04;5.40;86.60